Dwyer, Mississippi
Current Conditions -  °F | °C
As of 4:35 PM on Wednesday 22 Oct 2014 (Local Time) from KRNV Reporting Station
Clear Clear  
Wind Chill: 70°   Ceiling: Unl
Heat Index: 70°   Visibility: 10mi
Dew Point: 45°   Wind: 13mph
Humidity: 41%   Direction: 30°NNE
Pressure: 30.13"   Gusts: NA
Location:  33.5869°N, 90.6257°W
Report Text: KRNV 222135Z AUTO 03011KT 10SM CLR 21/07 A3013 RMK AO2 T02110073
Loading
Personal Weather Stations






























Interactive Weather Map
Tropical Storm Tracking
New forecast layout! Learn more

10-Day Weather Forecast

Advertisements
Track Severe Weather on mobile